Airfield :
LOGIN :

Register | Disclaimer

   EN    FR    IT 

 










Legend :    VFR   Marginal VFR   IFR   Intensive IFR   Very Intensive IFR
Visi :
Ceiling :
>= 8 km
>= 3000ft
5 to 8 km
1000 to 3000 ft
1500m to 5 km
500 to 1000 ft
800 to 1500m
200 to 500 ft
< 800m
< 200 ft
Symbols :   Thunderstorms  Fog  Heavy snow  Heavy precipitations  Wind > 20 kt
SIGMETs :     Misc.  Thunderstorms  Icing  Turbulence  Mountain Waves  Volcanic Ashes






- Airport Elevation : 39 ft
- IATA code : CTA


LICC - Catania Fontanarossa

CURRENT METAR :
  • 280650Z VRB02KT 9999 FEW035 24/16 Q1008

EXPIRED METARs :
  • 280620Z 22003KT 180V280 9999 FEW035 23/15 Q1008
  • 280550Z 24004KT 9999 SCT030 21/12 Q1008
  • 280520Z 25004KT 9999 SCT020 20/13 Q1008
  • 280450Z 23003KT 210V270 9999 SCT035 21/14 Q1008
  • 280420Z 04004KT 020V090 9999 SCT035 21/16 Q1008

TAF TAF LICC
Valid from the 28 at 06:00 until the 29 at 06:00 UTC


280500Z 2806/2906 VRB06KT CAVOK
BECMG 2808/2810 26012KT
BECMG 2900/2902 VRB05KT



MET'MAP, your aeronautical weather chart ! - Copyright ORBIFLY December 2007 - Disclaimer

ORBIFLY MET'MAP TEAM :

Programming & Development : Alexandra Zaïnal
Original concept : Baudouin d'Aumeries
Technical & hardware support : Manuel Goepfert
Assistance : Marc-Olivier Méhu

Contact : metmap@orbifly.com




SOURCES & CREDITS :

   NOAA